Time;durP1;ratioP1;P1;durP2;ratioP2;P2;SDS_P1;SDS_P2;PMS_P1;PMS_P2;Temp;Humidity;BMP_temperature;BMP_pressure;BME280_temperature;BME280_humidity;BME280_pressure;Samples;Min_cycle;Max_cycle;Signal;HPM_P1;HPM_P2
2023/05/24 00:02:02;;;;;;;0.20;0.20;;;;;;;11.55;67.25;97774.59;5077017;28;20388;-71
2023/05/24 00:04:30;;;;;;;0.20;0.20;;;;;;;11.53;67.01;97773.94;5080473;28;20054;-71
2023/05/24 00:06:58;;;;;;;0.20;0.20;;;;;;;11.57;66.98;97771.72;5082322;28;20132;-71
2023/05/24 00:09:26;;;;;;;0.30;0.30;;;;;;;11.61;67.21;97781.00;5078731;28;20051;-71
2023/05/24 00:11:54;;;;;;;0.22;0.22;;;;;;;11.57;66.38;97780.56;5077254;28;20040;-71
2023/05/24 00:14:22;;;;;;;0.22;0.22;;;;;;;11.58;66.77;97776.88;5072409;28;20486;-71
2023/05/24 00:16:49;;;;;;;0.17;0.17;;;;;;;11.58;66.46;97774.22;5071016;28;20048;-71
2023/05/24 00:19:17;;;;;;;0.28;0.28;;;;;;;11.56;66.38;97773.56;5075855;28;20055;-71
2023/05/24 00:21:45;;;;;;;0.40;0.40;;;;;;;11.62;66.61;97771.97;5073506;28;20475;-70
2023/05/24 00:24:13;;;;;;;0.20;0.20;;;;;;;11.28;67.08;97776.28;5073076;28;20052;-71
2023/05/24 00:26:42;;;;;;;0.22;0.22;;;;;;;11.16;67.78;97774.31;5058559;28;20040;-70
2023/05/24 00:29:10;;;;;;;0.20;0.20;;;;;;;11.30;67.05;97774.25;5074310;28;20036;-71
2023/05/24 00:31:38;;;;;;;0.30;0.30;;;;;;;11.30;66.16;97771.56;5051274;28;20508;-71
2023/05/24 00:34:06;;;;;;;0.30;0.30;;;;;;;11.17;66.07;97771.47;5083354;28;20040;-70
2023/05/24 00:36:35;;;;;;;0.28;0.28;;;;;;;11.05;66.74;97773.00;5080054;28;20040;-70
2023/05/24 00:39:03;;;;;;;0.22;0.22;;;;;;;11.20;65.96;97778.28;5053704;28;20057;-71
2023/05/24 00:41:30;;;;;;;0.22;0.22;;;;;;;11.12;65.71;97773.88;5068612;28;20036;-71
2023/05/24 00:44:00;;;;;;;0.30;0.30;;;;;;;11.14;65.95;97779.03;5062981;28;20029;-72
2023/05/24 00:46:29;;;;;;;0.25;0.25;;;;;;;11.07;65.60;97780.81;5065325;28;20350;-71
2023/05/24 00:48:58;;;;;;;0.30;0.30;;;;;;;11.15;65.04;97778.00;5085360;28;20515;-71
2023/05/24 00:51:26;;;;;;;0.30;0.30;;;;;;;11.18;64.03;97781.13;5051446;28;20041;-71
2023/05/24 00:53:54;;;;;;;0.20;0.20;;;;;;;10.94;64.24;97781.53;5076974;28;20036;-71
2023/05/24 00:56:22;;;;;;;0.28;0.28;;;;;;;10.90;63.00;97781.09;5074161;28;20064;-72
2023/05/24 00:58:53;;;;;;;0.38;0.38;;;;;;;10.82;63.80;97791.06;5058099;28;20040;-71
2023/05/24 01:01:24;;;;;;;0.20;0.20;;;;;;;10.90;63.08;97786.41;5057679;28;20098;-71
2023/05/24 01:03:52;;;;;;;0.40;0.40;;;;;;;10.98;62.72;97788.16;5086442;28;20051;-71
2023/05/24 01:06:22;;;;;;;0.20;0.20;;;;;;;10.92;62.04;97786.22;5068048;28;20058;-72
2023/05/24 01:09:09;;;;;;;0.20;0.20;;;;;;;10.93;62.43;97785.22;5085953;28;20043;-71
2023/05/24 01:11:45;;;;;;;0.13;0.13;;;;;;;10.98;61.78;97780.97;5076208;28;20403;-71
2023/05/24 01:14:20;;;;;;;0.22;0.22;;;;;;;10.99;62.07;97785.28;5058834;28;20113;-71
2023/05/24 01:16:55;;;;;;;0.20;0.20;;;;;;;10.85;61.72;97780.00;5082581;28;20127;-71
2023/05/24 01:19:51;;;;;;;0.30;0.30;;;;;;;10.85;61.57;97785.34;5064410;28;20048;-71
2023/05/24 01:22:37;;;;;;;;;;;;;;;10.70;62.30;97788.09;5017308;28;20071;-71
2023/05/24 01:25:07;;;;;;;0.20;0.20;;;;;;;10.68;61.85;97784.81;5067272;28;20438;-70
2023/05/24 01:27:38;;;;;;;0.32;0.32;;;;;;;10.65;61.94;97790.50;5059411;28;20414;-70
2023/05/24 01:30:08;;;;;;;0.20;0.20;;;;;;;10.62;62.17;97791.72;5087111;28;20048;-71
2023/05/24 01:32:37;;;;;;;0.20;0.20;;;;;;;10.58;62.41;97795.78;5074005;28;20123;-70
2023/05/24 01:35:06;;;;;;;0.20;0.20;;;;;;;10.59;62.55;97797.41;5071178;28;20433;-71
2023/05/24 01:37:35;;;;;;;0.20;0.20;;;;;;;10.68;62.69;97800.81;5073259;28;20045;-70
2023/05/24 01:40:04;;;;;;;0.20;0.20;;;;;;;10.61;62.58;97798.06;5070219;28;20041;-70
2023/05/24 01:42:36;;;;;;;0.30;0.30;;;;;;;10.66;62.16;97805.50;5061847;28;20063;-70
2023/05/24 01:45:09;;;;;;;0.20;0.20;;;;;;;10.49;62.77;97802.22;5055149;28;20048;-70
2023/05/24 01:47:45;;;;;;;0.20;0.20;;;;;;;10.54;62.88;97799.84;5056827;28;20045;-70
2023/05/24 01:50:17;;;;;;;0.10;0.10;;;;;;;10.40;63.44;97808.72;5054822;28;20497;-70
2023/05/24 01:52:45;;;;;;;0.30;0.30;;;;;;;10.47;63.26;97800.78;5073003;28;20044;-71
2023/05/24 01:55:15;;;;;;;0.20;0.20;;;;;;;10.51;63.52;97799.38;5054218;28;20056;-70
2023/05/24 01:57:43;;;;;;;0.20;0.20;;;;;;;10.40;63.99;97800.69;5062218;28;20492;-70
2023/05/24 02:00:16;;;;;;;0.25;0.25;;;;;;;10.48;63.78;97803.28;5078038;28;20460;-73
2023/05/24 02:02:44;;;;;;;0.20;0.20;;;;;;;10.43;63.70;97808.34;5059432;28;20072;-70
2023/05/24 02:05:12;;;;;;;0.57;0.57;;;;;;;10.37;64.01;97809.09;5079873;28;20105;-70
2023/05/24 02:07:41;;;;;;;0.40;0.40;;;;;;;10.22;64.70;97801.13;5055268;28;20515;-72
2023/05/24 02:10:09;;;;;;;0.40;0.40;;;;;;;10.34;64.32;97804.13;5053563;28;20048;-70
2023/05/24 02:12:37;;;;;;;0.13;0.13;;;;;;;10.37;64.20;97802.94;5086278;28;20036;-69
2023/05/24 02:15:07;;;;;;;0.30;0.30;;;;;;;10.20;64.49;97796.97;5059794;28;20044;-70
2023/05/24 02:17:37;;;;;;;0.22;0.22;;;;;;;10.17;64.87;97800.00;5054165;28;20049;-69
2023/05/24 02:20:06;;;;;;;0.22;0.22;;;;;;;10.26;64.88;97796.25;5050051;28;20419;-69
2023/05/24 02:22:33;;;;;;;0.30;0.30;;;;;;;10.34;64.59;97795.31;5076348;28;20036;-69
2023/05/24 02:25:01;;;;;;;0.20;0.20;;;;;;;10.36;64.65;97796.78;5071438;28;20504;-69
2023/05/24 02:27:29;;;;;;;0.20;0.20;;;;;;;10.41;64.30;97799.69;5066482;28;20071;-70
2023/05/24 02:29:56;;;;;;;0.25;0.25;;;;;;;10.41;64.03;97794.34;5071839;28;20518;-69
2023/05/24 02:32:24;;;;;;;0.20;0.20;;;;;;;10.34;64.05;97790.78;5070590;28;20036;-69
2023/05/24 02:34:53;;;;;;;0.20;0.20;;;;;;;10.34;64.15;97785.47;5077504;28;20051;-70
2023/05/24 02:37:20;;;;;;;0.20;0.20;;;;;;;10.37;64.26;97778.94;5052196;28;20415;-69
2023/05/24 02:39:48;;;;;;;0.25;0.25;;;;;;;10.39;63.70;97787.53;5054128;28;20591;-69
2023/05/24 02:42:15;;;;;;;0.32;0.32;;;;;;;10.30;63.58;97779.66;5057176;28;20496;-70
2023/05/24 02:44:46;;;;;;;0.32;0.32;;;;;;;10.26;63.71;97782.91;5083581;28;20503;-69
2023/05/24 02:47:14;;;;;;;0.20;0.20;;;;;;;10.26;63.75;97786.41;5057422;28;20048;-69
2023/05/24 02:49:41;;;;;;;0.30;0.30;;;;;;;10.26;63.77;97782.91;5072187;28;20041;-70
2023/05/24 02:52:10;;;;;;;0.10;0.10;;;;;;;10.20;63.51;97779.13;5084803;28;20044;-69
2023/05/24 02:54:38;;;;;;;0.28;0.28;;;;;;;10.16;63.68;97780.50;5081748;28;20399;-70
2023/05/24 02:57:06;;;;;;;0.20;0.20;;;;;;;10.09;63.77;97784.09;5058410;28;20043;-69
2023/05/24 02:59:33;;;;;;;0.20;0.20;;;;;;;10.11;63.63;97788.22;5062666;28;20045;-69
2023/05/24 03:02:01;;;;;;;0.28;0.28;;;;;;;9.94;63.79;97782.28;5085950;28;20118;-69
2023/05/24 03:04:29;;;;;;;0.30;0.30;;;;;;;9.86;63.37;97785.03;5072622;28;20044;-69
2023/05/24 03:06:56;;;;;;;0.30;0.30;;;;;;;9.70;63.75;97785.25;5052245;28;20044;-69
2023/05/24 03:09:26;;;;;;;0.30;0.30;;;;;;;9.70;63.72;97784.41;5083792;28;20049;-70
2023/05/24 03:11:54;;;;;;;0.20;0.20;;;;;;;9.71;63.41;97780.75;5060156;28;20502;-69
2023/05/24 03:14:23;;;;;;;0.43;0.43;;;;;;;9.72;63.28;97783.22;5056939;28;20045;-69
2023/05/24 03:16:51;;;;;;;0.50;0.50;;;;;;;9.74;63.22;97794.53;5053449;28;20451;-69
2023/05/24 03:19:19;;;;;;;0.22;0.22;;;;;;;9.65;63.49;97787.66;5077907;28;20052;-69
2023/05/24 03:21:48;;;;;;;0.20;0.20;;;;;;;9.64;63.60;97788.66;5055286;28;20127;-69
2023/05/24 03:24:15;;;;;;;0.20;0.20;;;;;;;9.64;63.79;97788.66;5067402;28;20436;-69
2023/05/24 03:26:44;;;;;;;0.28;0.28;;;;;;;9.55;63.85;97784.44;5057764;28;20094;-70
2023/05/24 03:29:12;;;;;;;0.32;0.32;;;;;;;9.59;63.89;97793.69;5052506;28;20068;-69
2023/05/24 03:31:42;;;;;;;0.20;0.20;;;;;;;9.56;64.37;97786.88;5053555;28;20040;-69
2023/05/24 03:34:10;;;;;;;0.28;0.25;;;;;;;9.52;64.34;97790.94;5061525;28;20068;-69
2023/05/24 03:36:38;;;;;;;0.20;0.20;;;;;;;9.59;64.23;97783.03;5063878;28;20484;-69
2023/05/24 03:39:06;;;;;;;0.20;0.20;;;;;;;9.65;64.05;97781.50;5060185;28;20633;-69
2023/05/24 03:41:53;;;;;;;0.20;0.20;;;;;;;9.59;64.54;97785.69;5051804;28;20130;-69
2023/05/24 03:44:21;;;;;;;0.20;0.20;;;;;;;9.56;64.46;97792.22;5066338;28;20059;-69
2023/05/24 03:46:49;;;;;;;0.40;0.40;;;;;;;9.66;64.56;97783.13;5063167;28;20048;-70
2023/05/24 03:49:16;;;;;;;0.32;0.32;;;;;;;9.69;64.22;97785.44;5053503;28;20131;-70
2023/05/24 03:51:44;;;;;;;0.40;0.40;;;;;;;9.73;64.19;97790.22;5053056;28;20048;-69
2023/05/24 03:54:12;;;;;;;0.20;0.20;;;;;;;9.67;64.33;97790.94;5075373;28;20079;-69
2023/05/24 03:56:41;;;;;;;0.20;0.20;;;;;;;9.72;64.24;97791.22;5062155;28;20413;-71
2023/05/24 03:59:10;;;;;;;0.15;0.15;;;;;;;9.73;64.16;97800.88;5077589;28;20056;-71
2023/05/24 04:01:38;;;;;;;0.30;0.30;;;;;;;9.68;64.45;97792.59;5067325;28;20394;-71
2023/05/24 04:04:05;;;;;;;0.30;0.30;;;;;;;9.70;64.41;97795.91;5074719;28;20514;-70
2023/05/24 04:06:35;;;;;;;0.20;0.20;;;;;;;9.65;64.46;97795.66;5077783;28;20143;-72
2023/05/24 04:09:04;;;;;;;0.25;0.25;;;;;;;9.58;64.54;97800.03;5052744;28;20135;-71
2023/05/24 04:11:32;;;;;;;0.20;0.20;;;;;;;9.63;64.48;97805.66;5066385;28;20067;-71
2023/05/24 04:14:00;;;;;;;0.30;0.30;;;;;;;9.66;64.41;97804.44;5066837;28;20044;-71
2023/05/24 04:16:32;;;;;;;0.30;0.30;;;;;;;9.63;64.66;97803.00;5061862;28;20076;-71
2023/05/24 04:19:03;;;;;;;0.13;0.13;;;;;;;9.59;64.95;97809.69;5062967;28;20040;-72
2023/05/24 04:21:32;;;;;;;0.30;0.30;;;;;;;9.63;63.84;97808.31;5059776;28;20079;-71
2023/05/24 04:24:00;;;;;;;0.30;0.30;;;;;;;9.67;63.78;97814.09;5081627;28;20501;-71
2023/05/24 04:26:28;;;;;;;0.30;0.30;;;;;;;9.59;63.92;97807.03;5067756;28;20086;-70
2023/05/24 04:28:56;;;;;;;0.22;0.22;;;;;;;9.66;64.07;97815.09;5069032;28;20044;-73
2023/05/24 04:31:24;;;;;;;0.38;0.38;;;;;;;9.53;63.98;97813.91;5069224;28;20131;-71
2023/05/24 04:33:54;;;;;;;0.20;0.20;;;;;;;9.47;64.17;97824.47;5072254;28;20051;-72
2023/05/24 04:36:22;;;;;;;0.20;0.20;;;;;;;9.49;64.08;97830.44;5051679;28;20603;-71
2023/05/24 04:38:52;;;;;;;0.32;0.32;;;;;;;9.43;64.24;97831.19;5053525;28;20427;-71
2023/05/24 04:41:21;;;;;;;0.30;0.30;;;;;;;9.35;64.22;97831.22;5079252;28;20058;-70
2023/05/24 04:43:49;;;;;;;0.30;0.30;;;;;;;9.45;64.10;97837.13;5082565;28;20379;-71
2023/05/24 04:46:16;;;;;;;0.30;0.30;;;;;;;9.38;64.07;97842.38;5071370;28;20079;-71
2023/05/24 04:48:44;;;;;;;0.52;0.52;;;;;;;9.19;64.58;97842.88;5075010;28;20500;-71
2023/05/24 04:51:13;;;;;;;0.20;0.20;;;;;;;8.97;65.45;97835.72;5070541;28;20274;-71
2023/05/24 04:53:41;;;;;;;0.30;0.30;;;;;;;9.09;64.84;97835.13;5075079;28;20071;-73
2023/05/24 04:56:09;;;;;;;0.20;0.20;;;;;;;9.17;64.96;97842.22;5061334;28;20121;-73
2023/05/24 04:58:37;;;;;;;0.20;0.20;;;;;;;9.25;64.90;97839.47;5070675;28;20040;-72
2023/05/24 05:01:06;;;;;;;0.30;0.30;;;;;;;9.33;64.76;97843.94;5081927;28;20067;-72
2023/05/24 05:03:33;;;;;;;0.30;0.30;;;;;;;9.29;64.57;97845.28;5082199;28;20070;-73
2023/05/24 05:06:01;;;;;;;0.20;0.20;;;;;;;9.37;64.06;97850.53;5074177;28;20127;-73
2023/05/24 05:08:30;;;;;;;0.22;0.22;;;;;;;9.37;63.64;97854.03;5071946;28;20045;-72
2023/05/24 05:10:58;;;;;;;0.32;0.32;;;;;;;9.41;63.26;97855.34;5062272;28;20048;-72
2023/05/24 05:13:26;;;;;;;0.20;0.20;;;;;;;9.51;63.28;97863.06;5084347;28;20492;-73
2023/05/24 05:15:53;;;;;;;0.40;0.40;;;;;;;9.52;62.87;97851.41;5075982;28;20582;-72
2023/05/24 05:18:21;;;;;;;0.25;0.25;;;;;;;9.53;62.32;97850.41;5085591;28;20083;-73
2023/05/24 05:20:49;;;;;;;0.30;0.30;;;;;;;9.37;62.40;97859.34;5086119;28;20500;-74
2023/05/24 05:23:16;;;;;;;0.22;0.22;;;;;;;9.24;62.61;97867.13;5080738;28;20124;-72
2023/05/24 05:25:45;;;;;;;0.22;0.22;;;;;;;9.25;61.90;97868.78;5085613;28;20058;-73
2023/05/24 05:28:13;;;;;;;0.20;0.20;;;;;;;9.25;62.24;97868.78;5076909;28;20503;-72
2023/05/24 05:30:41;;;;;;;0.30;0.30;;;;;;;9.23;62.43;97862.81;5078386;28;20055;-76
2023/05/24 05:33:09;;;;;;;0.30;0.30;;;;;;;9.21;62.62;97870.16;5076684;28;20395;-74
2023/05/24 05:35:36;;;;;;;0.30;0.30;;;;;;;9.27;62.29;97863.28;5076925;28;20109;-74
2023/05/24 05:38:04;;;;;;;0.22;0.20;;;;;;;9.23;62.55;97862.81;5077971;28;20056;-74
2023/05/24 05:40:31;;;;;;;0.20;0.20;;;;;;;9.22;62.55;97863.84;5083407;28;20115;-74
2023/05/24 05:43:00;;;;;;;0.30;0.30;;;;;;;9.34;61.80;97862.41;5060659;28;20074;-75
2023/05/24 05:45:28;;;;;;;0.40;0.40;;;;;;;9.33;61.02;97871.41;5077118;28;20143;-74
2023/05/24 05:47:56;;;;;;;0.30;0.30;;;;;;;9.22;60.66;97866.50;5080229;28;20076;-74
2023/05/24 05:50:23;;;;;;;0.20;0.20;;;;;;;9.24;61.20;97866.31;5076277;28;20454;-74
2023/05/24 05:52:51;;;;;;;0.20;0.20;;;;;;;9.33;60.95;97871.41;5079896;28;20063;-75
2023/05/24 05:55:18;;;;;;;0.20;0.20;;;;;;;9.38;60.23;97868.19;5083541;28;20044;-74
2023/05/24 05:57:46;;;;;;;0.20;0.20;;;;;;;9.29;59.76;97872.75;5086541;28;20403;-74
2023/05/24 06:00:16;;;;;;;0.10;0.10;;;;;;;9.32;60.64;97868.91;5084521;28;20048;-75
2023/05/24 06:02:43;;;;;;;0.20;0.20;;;;;;;9.44;61.12;97868.31;5082001;28;20062;-75
2023/05/24 06:05:11;;;;;;;0.20;0.20;;;;;;;9.48;60.70;97871.41;5088063;28;20450;-74
2023/05/24 06:07:41;;;;;;;0.13;0.13;;;;;;;9.49;60.21;97871.25;5081621;28;20040;-74
2023/05/24 06:10:10;;;;;;;0.20;0.20;;;;;;;9.62;60.26;97883.13;5088483;28;20134;-74
2023/05/24 06:12:39;;;;;;;0.25;0.25;;;;;;;9.62;59.54;97875.13;5071117;28;20044;-74
2023/05/24 06:15:08;;;;;;;0.20;0.20;;;;;;;9.61;59.32;97886.78;5088851;28;20047;-74
2023/05/24 06:17:37;;;;;;;0.20;0.20;;;;;;;9.66;59.13;97885.22;5074643;28;20071;-74
2023/05/24 06:20:07;;;;;;;0.25;0.25;;;;;;;9.57;58.93;97891.63;5073818;28;20086;-73
2023/05/24 06:22:36;;;;;;;0.20;0.20;;;;;;;9.62;59.27;97883.94;5080117;28;20048;-75
2023/05/24 06:25:04;;;;;;;0.30;0.30;;;;;;;9.50;59.28;97882.72;5076989;28;20045;-70
2023/05/24 06:27:32;;;;;;;0.20;0.20;;;;;;;9.57;59.23;97886.31;5080779;28;20044;-74
2023/05/24 06:29:59;;;;;;;0.10;0.10;;;;;;;9.55;59.66;97883.81;5079622;28;20114;-74
2023/05/24 06:32:27;;;;;;;0.20;0.20;;;;;;;9.66;59.64;97879.88;5066900;28;20048;-74
2023/05/24 06:34:56;;;;;;;0.35;0.35;;;;;;;9.78;59.64;97889.09;5076092;28;20041;-75
2023/05/24 06:37:24;;;;;;;0.30;0.30;;;;;;;9.84;59.43;97892.88;5083121;28;20082;-74
2023/05/24 06:39:51;;;;;;;0.22;0.22;;;;;;;9.80;59.82;97892.41;5082185;28;20127;-74
2023/05/24 06:42:19;;;;;;;0.28;0.28;;;;;;;9.84;59.05;97893.72;5083638;28;20524;-73
2023/05/24 06:44:47;;;;;;;0.22;0.22;;;;;;;9.86;58.96;97898.88;5079550;28;20136;-75
2023/05/24 06:47:14;;;;;;;0.32;0.32;;;;;;;9.91;59.15;97897.31;5049065;28;20163;-74
2023/05/24 06:49:42;;;;;;;0.10;0.10;;;;;;;9.93;59.08;97894.47;5058716;28;20138;-74
2023/05/24 06:52:12;;;;;;;0.20;0.20;;;;;;;9.99;59.41;97900.88;5081632;28;20423;-71
2023/05/24 06:54:40;;;;;;;0.20;0.20;;;;;;;10.06;59.36;97907.16;5073896;28;20039;-75
2023/05/24 06:57:08;;;;;;;0.50;0.30;;;;;;;9.91;59.59;97913.28;5078233;28;20046;-72
2023/05/24 06:59:36;;;;;;;0.20;0.20;;;;;;;10.02;59.35;97909.34;5073523;28;20044;-73
2023/05/24 07:02:04;;;;;;;0.30;0.30;;;;;;;10.09;58.83;97914.78;5081919;28;20101;-74
2023/05/24 07:04:32;;;;;;;0.30;0.30;;;;;;;10.12;58.32;97925.09;5083641;28;20071;-74
2023/05/24 07:06:59;;;;;;;0.38;0.38;;;;;;;10.05;58.13;97925.00;5076979;28;20052;-75
2023/05/24 07:09:28;;;;;;;0.20;0.20;;;;;;;9.97;57.81;97921.59;5082976;28;20131;-75
2023/05/24 07:11:56;;;;;;;0.20;0.20;;;;;;;9.98;58.36;97921.38;5083865;28;20384;-74
2023/05/24 07:14:26;;;;;;;0.22;0.22;;;;;;;10.06;58.35;97920.50;5083140;28;20047;-75
2023/05/24 07:16:56;;;;;;;0.30;0.30;;;;;;;10.23;57.49;97925.50;5083411;28;20129;-74
2023/05/24 07:19:27;;;;;;;0.30;0.30;;;;;;;10.34;57.31;97932.19;5073588;28;20087;-74
2023/05/24 07:21:55;;;;;;;0.22;0.22;;;;;;;10.32;56.88;97920.88;5084711;28;20052;-73
2023/05/24 07:24:23;;;;;;;0.20;0.20;;;;;;;10.44;56.02;97921.25;5081501;28;20143;-74
2023/05/24 07:26:52;;;;;;;0.25;0.25;;;;;;;10.52;54.95;97918.47;5079812;28;20124;-74
2023/05/24 07:29:21;;;;;;;0.20;0.20;;;;;;;10.49;54.93;97925.00;5081843;28;20040;-72
2023/05/24 07:31:48;;;;;;;0.20;0.20;;;;;;;10.49;54.87;97925.00;5084578;28;20391;-73
2023/05/24 07:34:16;;;;;;;0.30;0.30;;;;;;;10.60;55.03;97918.34;5073935;28;20048;-72
2023/05/24 07:36:44;;;;;;;0.32;0.32;;;;;;;10.76;54.23;97925.34;5085953;28;20049;-74
2023/05/24 07:39:14;;;;;;;0.20;0.20;;;;;;;10.81;53.98;97926.41;5079329;28;20036;-74
2023/05/24 07:41:42;;;;;;;0.30;0.30;;;;;;;10.77;53.74;97919.81;5074793;28;20071;-72
2023/05/24 07:44:11;;;;;;;0.30;0.30;;;;;;;10.41;54.49;97914.44;5076422;28;20050;-70
2023/05/24 07:46:39;;;;;;;0.25;0.25;;;;;;;10.64;54.34;97919.66;5061098;28;20068;-72
2023/05/24 07:49:07;;;;;;;0.30;0.30;;;;;;;10.53;54.50;97915.63;5073089;28;20045;-72
2023/05/24 07:51:34;;;;;;;0.20;0.20;;;;;;;10.68;53.69;97915.59;5083542;28;20048;-72
2023/05/24 07:54:02;;;;;;;0.20;0.20;;;;;;;10.44;54.30;97915.91;5086287;28;20048;-72
2023/05/24 07:56:29;;;;;;;0.20;0.20;;;;;;;10.41;54.75;97918.94;5078681;28;20466;-71
2023/05/24 07:59:02;;;;;;;0.20;0.20;;;;;;;10.45;55.05;97918.41;5088712;28;20048;-72
2023/05/24 08:01:33;;;;;;;0.20;0.20;;;;;;;10.66;54.95;97914.97;5082562;28;20054;-72
2023/05/24 08:04:02;;;;;;;0.20;0.20;;;;;;;10.87;54.41;97916.84;5090409;28;20059;-72
2023/05/24 08:06:31;;;;;;;0.20;0.20;;;;;;;10.99;53.65;97916.16;5074677;28;21051;-72
2023/05/24 08:08:59;;;;;;;0.20;0.20;;;;;;;11.09;53.29;97921.19;5078941;28;20119;-72
2023/05/24 08:11:26;;;;;;;0.25;0.25;;;;;;;11.13;52.74;97922.44;5081580;28;20158;-73
2023/05/24 08:13:54;;;;;;;0.30;0.30;;;;;;;11.04;52.01;97918.25;5083767;28;20052;-71
2023/05/24 08:16:21;;;;;;;0.20;0.20;;;;;;;11.08;52.25;97914.19;5082017;28;20070;-72
2023/05/24 08:18:50;;;;;;;0.28;0.28;;;;;;;11.23;51.65;97914.94;5077512;28;20044;-73
2023/05/24 08:21:22;;;;;;;0.30;0.30;;;;;;;11.25;52.21;97918.25;5077535;28;20048;-72
2023/05/24 08:23:50;;;;;;;0.30;0.30;;;;;;;11.31;52.36;97917.53;5080158;28;20475;-72
2023/05/24 08:26:19;;;;;;;0.30;0.30;;;;;;;11.42;51.48;97913.47;5074158;28;20040;-71
2023/05/24 08:28:47;;;;;;;0.20;0.20;;;;;;;11.33;51.50;97910.13;5080680;28;20499;-72
2023/05/24 08:31:15;;;;;;;0.20;0.20;;;;;;;11.33;50.93;97912.78;5077208;28;20048;-71
2023/05/24 08:33:43;;;;;;;0.15;0.15;;;;;;;11.48;51.38;97915.41;5081841;28;20048;-72
2023/05/24 08:36:12;;;;;;;0.30;0.30;;;;;;;11.63;51.23;97912.63;5085986;28;20036;-72
2023/05/24 08:38:39;;;;;;;0.30;0.30;;;;;;;11.64;49.69;97914.28;5075067;28;20045;-72
2023/05/24 08:41:07;;;;;;;0.38;0.38;;;;;;;11.68;50.03;97919.06;5086791;28;20131;-72
2023/05/24 08:43:35;;;;;;;0.20;0.20;;;;;;;11.39;50.98;97914.72;5079338;28;20043;-71
2023/05/24 08:46:04;;;;;;;0.20;0.20;;;;;;;11.69;50.65;97910.03;5081158;28;20041;-71
2023/05/24 08:48:32;;;;;;;0.30;0.30;;;;;;;11.73;50.63;97908.59;5092123;28;20043;-71
2023/05/24 08:51:00;;;;;;;0.20;0.20;;;;;;;11.79;49.78;97912.38;5083126;28;20036;-71
2023/05/24 08:53:30;;;;;;;0.30;0.30;;;;;;;11.88;50.24;97916.56;5089872;28;20126;-72
2023/05/24 08:55:58;;;;;;;0.10;0.10;;;;;;;11.96;50.28;97912.91;5083056;28;20044;-71
2023/05/24 08:58:25;;;;;;;0.35;0.35;;;;;;;12.05;50.30;97914.41;5090720;28;20126;-71
2023/05/24 09:00:53;;;;;;;0.30;0.30;;;;;;;12.10;50.23;97922.69;5082646;28;20044;-72
2023/05/24 09:03:21;;;;;;;0.20;0.20;;;;;;;12.28;49.75;97923.00;5076061;28;20049;-71
2023/05/24 09:05:48;;;;;;;0.13;0.13;;;;;;;12.34;49.88;97922.22;5086483;28;20143;-71
2023/05/24 09:08:17;;;;;;;0.20;0.20;;;;;;;12.47;49.16;97916.09;5075444;28;20036;-71
2023/05/24 09:10:46;;;;;;;0.20;0.20;;;;;;;12.37;48.49;97929.00;5082418;28;20056;-71
2023/05/24 09:13:23;;;;;;;0.20;0.20;;;;;;;12.34;48.88;97922.22;5083756;28;20569;-72
2023/05/24 09:15:51;;;;;;;0.20;0.20;;;;;;;12.36;48.50;97922.00;5087849;28;20135;-71
2023/05/24 09:18:19;;;;;;;0.25;0.25;;;;;;;12.68;48.20;97918.66;5073844;28;20041;-71
2023/05/24 09:20:46;;;;;;;0.30;0.30;;;;;;;12.58;47.61;97917.38;5079362;28;20138;-74
2023/05/24 09:23:14;;;;;;;0.22;0.22;;;;;;;12.76;47.77;97925.72;5083406;28;20033;-72
2023/05/24 09:25:43;;;;;;;0.20;0.20;;;;;;;12.62;47.66;97929.34;5085605;28;20051;-71
2023/05/24 09:28:15;;;;;;;0.20;0.20;;;;;;;12.91;47.20;97923.69;5085630;28;20048;-71
2023/05/24 09:30:43;;;;;;;0.43;0.43;;;;;;;13.08;46.21;97921.50;5064984;28;20170;-72
2023/05/24 09:33:12;;;;;;;0.10;0.10;;;;;;;13.22;46.76;97924.03;5085373;28;20455;-71
2023/05/24 09:35:42;;;;;;;0.10;0.10;;;;;;;13.25;46.70;97925.47;5084624;28;20336;-71
2023/05/24 09:38:17;;;;;;;0.30;0.30;;;;;;;13.23;46.65;97924.84;5085579;28;20135;-71
2023/05/24 09:40:45;;;;;;;0.20;0.20;;;;;;;13.07;47.12;97928.72;5085222;28;20048;-71
2023/05/24 09:43:14;;;;;;;0.30;0.30;;;;;;;13.18;46.31;97927.31;5085205;28;20380;-71
2023/05/24 09:45:43;;;;;;;0.20;0.20;;;;;;;13.52;46.15;97918.28;5073617;28;20049;-71
2023/05/24 09:48:11;;;;;;;0.20;0.20;;;;;;;13.73;45.22;97926.13;5079529;28;20037;-71
2023/05/24 09:50:39;;;;;;;0.25;0.25;;;;;;;13.73;45.34;97920.78;5081674;28;20059;-71
2023/05/24 09:53:07;;;;;;;0.20;0.20;;;;;;;14.03;45.58;97926.53;5081270;28;20040;-71
2023/05/24 09:55:36;;;;;;;0.20;0.20;;;;;;;14.16;45.02;97923.84;5081188;28;20046;-71
2023/05/24 09:58:07;;;;;;;0.13;0.13;;;;;;;14.23;43.99;97924.63;5081268;28;20492;-71
2023/05/24 10:00:38;;;;;;;0.20;0.20;;;;;;;14.30;43.88;97930.84;5087033;28;20044;-71
2023/05/24 10:03:07;;;;;;;0.20;0.20;;;;;;;14.06;44.33;97927.97;5081381;28;20045;-71
2023/05/24 10:05:35;;;;;;;0.30;0.30;;;;;;;13.39;45.74;97937.84;5082619;28;20050;-71
2023/05/24 10:08:04;;;;;;;0.13;0.13;;;;;;;13.95;45.21;97935.63;5076674;28;20036;-71
2023/05/24 10:10:33;;;;;;;0.30;0.30;;;;;;;14.07;44.52;97930.47;5080465;28;20032;-73
2023/05/24 10:13:02;;;;;;;0.20;0.20;;;;;;;14.19;44.35;97926.09;5078129;28;20139;-72
2023/05/24 10:15:30;;;;;;;0.30;0.30;;;;;;;14.58;43.63;97930.59;5085189;28;20558;-73
2023/05/24 10:18:00;;;;;;;0.20;0.20;;;;;;;14.75;42.75;97941.66;5080800;28;20040;-73
2023/05/24 10:20:28;;;;;;;0.17;0.17;;;;;;;14.74;42.89;97926.63;5074338;28;20098;-73
2023/05/24 10:23:00;;;;;;;0.22;0.22;;;;;;;14.97;42.65;97918.84;5084648;28;20412;-74
2023/05/24 10:25:29;;;;;;;0.20;0.20;;;;;;;14.72;43.17;97912.56;5080793;28;20036;-73
2023/05/24 10:27:58;;;;;;;0.20;0.20;;;;;;;14.85;43.45;97919.72;5081873;28;20399;-73
2023/05/24 10:30:30;;;;;;;0.10;0.10;;;;;;;14.90;42.90;97922.59;5082039;28;20254;-73
2023/05/24 10:32:59;;;;;;;;;;;;;;;14.99;42.99;97922.16;5084846;28;20564;-73
2023/05/24 10:35:28;;;;;;;0.20;0.20;;;;;;;15.29;42.38;97935.00;5082516;28;19947;-73
2023/05/24 10:37:56;;;;;;;0.20;0.20;;;;;;;14.88;42.36;97919.31;5085243;28;20044;-73
2023/05/24 10:40:25;;;;;;;0.20;0.20;;;;;;;14.72;43.23;97926.00;5063860;28;20097;-73
2023/05/24 10:42:53;;;;;;;0.20;0.20;;;;;;;15.15;42.36;97920.84;5083678;28;20078;-74
2023/05/24 10:45:34;;;;;;;0.10;0.10;;;;;;;15.49;41.25;97918.75;5082366;28;20407;-73
2023/05/24 10:48:11;;;;;;;0.20;0.20;;;;;;;15.66;40.87;97912.66;5079375;28;20382;-73
2023/05/24 10:50:39;;;;;;;0.10;0.10;;;;;;;15.83;40.80;97910.22;5063295;28;20565;-73
2023/05/24 10:53:13;;;;;;;0.30;0.30;;;;;;;15.86;40.64;97917.88;5089791;28;20452;-73
2023/05/24 10:55:55;;;;;;;0.28;0.28;;;;;;;15.86;41.01;97917.88;5059711;28;20056;-74
2023/05/24 10:58:29;;;;;;;0.20;0.20;;;;;;;15.65;41.19;97907.50;5075004;28;20067;-73
2023/05/24 11:00:57;;;;;;;0.20;0.20;;;;;;;15.59;41.86;97913.72;5084671;28;20081;-74
2023/05/24 11:03:32;;;;;;;0.10;0.10;;;;;;;15.85;40.56;97916.22;5084773;28;20132;-73
2023/05/24 11:06:00;;;;;;;0.10;0.10;;;;;;;16.02;40.52;97921.88;5085044;28;20109;-73
2023/05/24 11:08:31;;;;;;;0.25;0.25;;;;;;;16.17;40.46;97922.34;5079912;28;20052;-73
2023/05/24 11:11:09;;;;;;;0.10;0.10;;;;;;;16.40;39.37;97914.44;5080167;28;20368;-73
2023/05/24 11:13:40;;;;;;;0.13;0.13;;;;;;;16.48;38.74;97916.03;5070750;28;20040;-73
2023/05/24 11:16:08;;;;;;;0.20;0.20;;;;;;;16.60;39.46;97906.16;5083388;28;20041;-73
2023/05/24 11:18:38;;;;;;;0.13;0.13;;;;;;;15.29;41.57;97902.72;5074599;28;20040;-73
2023/05/24 11:21:06;;;;;;;0.15;0.15;;;;;;;16.03;40.84;97910.88;5077546;28;20051;-73
2023/05/24 11:23:34;;;;;;;0.15;0.15;;;;;;;16.05;40.37;97919.56;5082948;28;20047;-73
2023/05/24 11:26:06;;;;;;;0.10;0.10;;;;;;;16.18;40.38;97907.84;5083206;28;20052;-73
2023/05/24 11:28:36;;;;;;;0.20;0.20;;;;;;;16.31;39.99;97905.00;5079787;28;20062;-73
2023/05/24 11:31:08;;;;;;;0.20;0.20;;;;;;;16.55;40.26;97907.84;5078667;28;20048;-73
2023/05/24 11:33:42;;;;;;;0.10;0.10;;;;;;;16.30;39.36;97907.94;5076586;28;20040;-73
2023/05/24 11:36:10;;;;;;;0.20;0.20;;;;;;;16.31;39.67;97906.88;5086409;28;20044;-73
2023/05/24 11:38:37;;;;;;;0.13;0.13;;;;;;;15.84;40.40;97903.81;5069492;28;20032;-73
2023/05/24 11:41:06;;;;;;;0.10;0.10;;;;;;;15.83;39.59;97906.72;5075100;28;20048;-73
2023/05/24 11:43:34;;;;;;;0.13;0.13;;;;;;;16.06;39.69;97910.44;5085071;28;20478;-73
2023/05/24 11:46:01;;;;;;;0.20;0.20;;;;;;;16.00;39.47;97905.91;5076217;28;20411;-73